Keeseville, NY (12944)

5:14 PM EDT on April 25, 2017 (GMT -0400)
Northern Orchard | | Change Station

Elev 0 ft 44.56 °N, 73.54 °W | Updated 1 second ago

Overcast
Overcast
49.1 °F
Feels Like 49 °F
N
2.6
Wind Variable Wind from SSW
Gusts 4.0 mph

Today
High -- | Low -- °F
--% Chance of Precip.
Yesterday
High -- | Low -- °F
Precip. -- in
Pressure 30.16 in
Visibility 8.0 miles
Clouds Mostly Cloudy 3300 ft
Overcast 5500 ft
Windchill 49 °F
Dew Point 47 °F
Humidity 90%
Rainfall 0.11 in
Snow Depth Not available.
5:53 AM 7:51 PM
Waning Crescent, 1% visible
METAR KPBG 252053Z AUTO 15008KT 8SM -RA BKN033 OVC055 09/07 A3015 RMK AO2 SLP213 P0005 60008 T00940072 58017
Pressure 30.16 in
Visibility 8.0 miles
Clouds Mostly Cloudy 3300 ft
Overcast 5500 ft
Windchill 49 °F
Dew Point 47 °F
Humidity 90%
Rainfall 0.11 in
Snow Depth Not available.
5:53 AM 7:51 PM
Waning Crescent, 1% visible
METAR KPBG 252053Z AUTO 15008KT 8SM -RA BKN033 OVC055 09/07 A3015 RMK AO2 SLP213 P0005 60008 T00940072 58017

Get Severe Weather Alerts

Thanks for signing up!

Be on the lookout for a verification email in your inbox.

You'll start receiving the daily forecast at 8 AM.

×

10-Day Weather Forecast

Almanac

Astronomy

Apr. 25, 2017 Rise Set
Actual Time
Civil Twilight
Nautical Twilight
Astronomical Twilight
Moon
Length of Visible Light
Length of Day
Tomorrow will be .
, % of the Moon is Illuminated

Today's Extremes

State Highs State Lows

Community

WunderPhotos

WunderBlog® & News

Nearby

Air Quality

  Air Quality AQ Index Pollutant
Not available.

Snow Depth

Station Depth Elevation

Earthquake Activity

City Distance Mag. Time & Date
Minimum magnitude displayed is 2.5.

Coastal Water Temperatures

Place Temperature

Stations

Nearby Weather Stations

Station Location Temp. Windchill Dew Point Humidity Wind Precip. Elev Updated Type
                   

Watches & Warnings

There are currently no watches in effect.